createdAt,value
2018-06-22T00:00:31.830Z,3.63
2018-06-22T00:03:01.517Z,4.53
2018-06-22T00:05:31.186Z,3.33
2018-06-22T00:08:00.647Z,3.77
2018-06-22T00:10:30.048Z,3.77
2018-06-22T00:12:59.718Z,3.77
2018-06-22T00:15:29.422Z,3.97
2018-06-22T00:17:58.813Z,4.37
2018-06-22T00:20:28.638Z,8.70
2018-06-22T00:22:58.059Z,4.03
2018-06-22T00:25:27.823Z,4.57
2018-06-22T00:27:57.480Z,5.37
2018-06-22T00:30:27.148Z,5.57
2018-06-22T00:32:56.854Z,5.23
2018-06-22T00:35:26.539Z,4.23
2018-06-22T00:37:56.198Z,3.50
2018-06-22T00:40:25.602Z,3.97
2018-06-22T00:42:55.269Z,7.67
2018-06-22T00:45:25.027Z,5.20
2018-06-22T00:47:54.689Z,5.70
2018-06-22T00:50:24.376Z,2.50
2018-06-22T00:52:54.406Z,2.77
2018-06-22T00:55:24.063Z,4.00
2018-06-22T00:57:53.767Z,5.97
2018-06-22T01:00:23.469Z,2.20
2018-06-22T01:02:52.927Z,4.03
2018-06-22T01:05:22.614Z,5.27
2018-06-22T01:07:52.278Z,4.30
2018-06-22T01:10:21.966Z,4.50
2018-06-22T01:12:51.638Z,7.20
2018-06-22T01:15:21.026Z,3.33
2018-06-22T01:17:50.707Z,3.27
2018-06-22T01:20:20.383Z,2.00
2018-06-22T01:22:50.122Z,3.00
2018-06-22T01:25:19.800Z,2.00
2018-06-22T01:27:49.478Z,3.23
2018-06-22T01:30:19.153Z,3.87
2018-06-22T01:32:48.835Z,3.50
2018-06-22T01:35:18.258Z,1.63
2018-06-22T01:37:48.006Z,4.70
2018-06-22T01:40:17.713Z,3.33
2018-06-22T01:42:47.366Z,3.50
2018-06-22T01:45:17.050Z,3.70
2018-06-22T01:47:46.750Z,2.77
2018-06-22T01:50:16.478Z,3.50
2018-06-22T01:52:46.131Z,4.17
2018-06-22T01:55:18.755Z,2.93
2018-06-22T01:57:48.450Z,1.73
2018-06-22T02:00:18.155Z,3.20
2018-06-22T02:02:47.837Z,1.80
2018-06-22T02:05:17.520Z,3.10
2018-06-22T02:07:47.205Z,7.10
2018-06-22T02:10:16.871Z,3.37
2018-06-22T02:12:46.606Z,4.13
2018-06-22T02:15:16.279Z,2.87
2018-06-22T02:17:45.982Z,4.37
2018-06-22T02:20:15.690Z,2.50
2018-06-22T02:22:45.374Z,3.13
2018-06-22T02:25:15.097Z,4.80
2018-06-22T02:27:44.814Z,3.33
2018-06-22T02:30:14.510Z,3.07
2018-06-22T02:32:44.195Z,4.50
2018-06-22T02:35:13.892Z,4.73
2018-06-22T02:37:43.607Z,2.93
2018-06-22T02:40:13.284Z,2.33
2018-06-22T02:42:42.682Z,3.03
2018-06-22T02:45:12.344Z,5.97
2018-06-22T02:47:42.006Z,3.93
2018-06-22T02:50:11.714Z,4.27
2018-06-22T02:52:41.176Z,4.80
2018-06-22T02:55:10.853Z,5.57
2018-06-22T02:57:40.515Z,3.13
2018-06-22T03:00:10.182Z,4.90
2018-06-22T03:02:40.137Z,3.73
2018-06-22T03:05:09.796Z,2.43
2018-06-22T03:07:39.523Z,4.37
2018-06-22T03:10:08.911Z,4.07
2018-06-22T03:12:38.612Z,3.13
2018-06-22T03:15:08.327Z,4.23
2018-06-22T03:17:37.711Z,5.50
2018-06-22T03:20:07.116Z,4.87
2018-06-22T03:22:36.801Z,2.77
2018-06-22T03:25:06.506Z,2.27
2018-06-22T03:27:36.238Z,2.97
2018-06-22T03:30:05.665Z,3.33
2018-06-22T03:32:35.323Z,5.13
2018-06-22T03:35:04.747Z,6.37
2018-06-22T03:37:34.438Z,2.00
2018-06-22T03:40:04.452Z,5.77
2018-06-22T03:42:33.886Z,2.70
2018-06-22T03:45:03.620Z,7.73
2018-06-22T03:47:33.290Z,3.00
2018-06-22T03:50:02.988Z,2.73
2018-06-22T03:52:32.718Z,2.60
2018-06-22T03:55:02.395Z,1.40
2018-06-22T03:57:32.246Z,2.63
2018-06-22T04:00:01.923Z,3.30
2018-06-22T04:02:31.342Z,7.67
2018-06-22T04:05:01.155Z,3.40
2018-06-22T04:07:30.549Z,2.77
2018-06-22T04:10:00.015Z,2.07
2018-06-22T04:12:29.694Z,5.37
2018-06-22T04:14:59.379Z,3.97
2018-06-22T04:17:29.082Z,3.03
2018-06-22T04:19:58.751Z,6.00
2018-06-22T04:22:28.485Z,3.67
2018-06-22T04:24:57.866Z,3.23
2018-06-22T04:27:27.278Z,4.43
2018-06-22T04:29:56.686Z,2.63
2018-06-22T04:32:26.080Z,2.90
2018-06-22T04:34:55.783Z,3.40
2018-06-22T04:37:25.439Z,4.90
2018-06-22T04:39:54.831Z,2.97
2018-06-22T04:42:24.502Z,3.03
2018-06-22T04:44:54.234Z,5.27
2018-06-22T04:47:24.050Z,2.53
2018-06-22T04:49:53.769Z,4.97
2018-06-22T04:52:23.450Z,5.53
2018-06-22T04:54:53.193Z,1.60
2018-06-22T04:57:22.855Z,3.37
2018-06-22T04:59:52.564Z,3.63
2018-06-22T05:02:22.283Z,2.30
2018-06-22T05:04:52.148Z,4.63
2018-06-22T05:07:21.838Z,2.83
2018-06-22T05:09:51.537Z,1.90
2018-06-22T05:12:20.999Z,3.40
2018-06-22T05:14:50.718Z,1.90
2018-06-22T05:17:20.423Z,2.60
2018-06-22T05:19:50.135Z,686.00
2018-06-22T05:22:20.374Z,3.27
2018-06-22T05:24:50.470Z,33.58
2018-06-22T05:27:20.999Z,4.37
2018-06-22T05:29:51.301Z,3.62
2018-06-22T05:32:21.540Z,6.12
2018-06-22T05:34:51.809Z,5.12
2018-06-22T05:37:22.055Z,4.20
2018-06-22T05:39:52.320Z,6.05
2018-06-22T05:42:22.597Z,2.55
2018-06-22T05:44:52.854Z,5.10
2018-06-22T05:47:23.182Z,2.90
2018-06-22T05:49:53.439Z,4.30
2018-06-22T05:52:23.424Z,3.42
2018-06-22T05:54:53.693Z,5.20
2018-06-22T05:57:23.946Z,3.50
2018-06-22T05:59:54.227Z,3.98
2018-06-22T06:02:24.493Z,3.80
2018-06-22T06:04:54.755Z,2.62
2018-06-22T06:07:24.978Z,5.45
2018-06-22T06:09:55.416Z,4.80
2018-06-22T06:12:25.145Z,3.17
2018-06-22T06:14:55.438Z,2.20
2018-06-22T06:17:25.456Z,4.25
2018-06-22T06:19:55.993Z,3.87
2018-06-22T06:22:26.207Z,3.50
2018-06-22T06:24:56.184Z,4.17
2018-06-22T06:27:25.878Z,2.57
2018-06-22T06:29:55.844Z,4.97
2018-06-22T06:32:25.828Z,4.10
2018-06-22T06:34:55.834Z,3.40
2018-06-22T06:37:25.796Z,4.10
2018-06-22T06:39:55.472Z,5.97
2018-06-22T06:42:25.514Z,3.93
2018-06-22T06:44:55.674Z,3.77
2018-06-22T06:47:25.946Z,4.25
2018-06-22T06:49:55.923Z,2.80
2018-06-22T06:52:25.917Z,2.00
2018-06-22T06:54:55.867Z,3.00
2018-06-22T06:57:25.802Z,1.47
2018-06-22T06:59:55.891Z,2.63
2018-06-22T07:02:25.918Z,2.70
2018-06-22T07:04:56.122Z,2.27
2018-06-22T07:07:26.107Z,3.63
2018-06-22T07:09:56.089Z,2.47
2018-06-22T07:12:26.060Z,4.40
2018-06-22T07:14:55.763Z,5.17
2018-06-22T07:17:25.784Z,2.67
2018-06-22T07:19:55.733Z,3.47
2018-06-22T07:22:25.755Z,4.43
2018-06-22T07:24:55.733Z,3.53
2018-06-22T07:27:25.723Z,3.67
2018-06-22T07:29:55.716Z,3.07
2018-06-22T07:32:25.677Z,3.03
2018-06-22T07:34:55.969Z,3.98
2018-06-22T07:37:26.213Z,2.85
2018-06-22T07:39:57.829Z,2.20
2018-06-22T07:42:27.835Z,4.03
2018-06-22T07:44:57.544Z,2.73
2018-06-22T07:47:27.554Z,2.63
2018-06-22T07:49:57.805Z,2.80
2018-06-22T07:52:28.260Z,3.40
2018-06-22T07:54:58.567Z,5.10
2018-06-22T07:57:29.056Z,4.70
2018-06-22T07:59:59.443Z,3.90
2018-06-22T08:02:29.814Z,4.45
2018-06-22T08:05:00.134Z,2.50
2018-06-22T08:07:30.414Z,5.53
2018-06-22T08:10:00.674Z,1.95
2018-06-22T08:12:30.998Z,4.60
2018-06-22T08:15:01.322Z,3.60
2018-06-22T08:17:31.373Z,2.98
2018-06-22T08:20:01.548Z,2.35
2018-06-22T08:22:31.910Z,5.70
2018-06-22T08:25:02.262Z,2.27
2018-06-22T08:27:32.518Z,3.55
2018-06-22T08:30:02.824Z,2.27
2018-06-22T08:32:33.141Z,2.65
2018-06-22T08:35:03.445Z,4.05
2018-06-22T08:37:33.691Z,3.25
2018-06-22T08:40:03.986Z,3.72
2018-06-22T08:42:34.223Z,1.92
2018-06-22T08:45:04.326Z,2.25
2018-06-22T08:47:34.553Z,1.52
2018-06-22T08:50:04.828Z,3.47
2018-06-22T08:52:34.891Z,2.72
2018-06-22T08:55:05.487Z,2.37
2018-06-22T08:57:35.499Z,2.42
2018-06-22T09:00:05.899Z,1.67
2018-06-22T09:02:35.956Z,1.32
2018-06-22T09:05:06.222Z,3.20
2018-06-22T09:07:36.470Z,2.58
2018-06-22T09:10:06.762Z,2.17
2018-06-22T09:12:37.058Z,2.05
2018-06-22T09:15:07.511Z,2.10
2018-06-22T09:17:37.799Z,2.85
2018-06-22T09:20:08.078Z,2.72
2018-06-22T09:22:37.750Z,1.77
2018-06-22T09:25:07.759Z,2.33
2018-06-22T09:27:37.501Z,2.43
2018-06-22T09:30:06.923Z,1.60
2018-06-22T09:32:37.266Z,1.67
2018-06-22T09:35:08.258Z,2.67
2018-06-22T09:37:38.424Z,3.23
2018-06-22T09:40:08.230Z,3.67
2018-06-22T09:42:37.776Z,3.57
2018-06-22T09:45:07.687Z,2.27
2018-06-22T09:47:37.542Z,3.40
2018-06-22T09:50:06.982Z,2.63
2018-06-22T09:52:36.406Z,3.70
2018-06-22T09:55:06.370Z,5.03
2018-06-22T09:57:36.079Z,2.83
2018-06-22T10:00:05.931Z,6.27
2018-06-22T10:02:35.415Z,2.93
2018-06-22T10:05:05.162Z,4.00
2018-06-22T10:07:34.850Z,1.90
2018-06-22T10:10:04.564Z,2.03
2018-06-22T10:12:34.264Z,2.70
2018-06-22T10:15:04.020Z,3.87
2018-06-22T10:17:33.452Z,2.43
2018-06-22T10:20:03.166Z,1.63
2018-06-22T10:22:32.862Z,3.30
2018-06-22T10:25:02.586Z,4.63
2018-06-22T10:27:32.290Z,3.40
2018-06-22T10:30:01.979Z,3.63
2018-06-22T10:32:31.675Z,3.33
2018-06-22T10:35:01.350Z,2.50
2018-06-22T10:37:31.139Z,3.10
2018-06-22T10:40:00.983Z,2.63
2018-06-22T10:42:30.408Z,1.13
2018-06-22T10:44:59.830Z,0.80
2018-06-22T10:47:29.544Z,1.67
2018-06-22T10:49:59.262Z,5.10
2018-06-22T10:52:28.996Z,2.33
2018-06-22T10:54:58.731Z,2.30
2018-06-22T10:57:28.547Z,1.57
2018-06-22T10:59:58.558Z,2.17
2018-06-22T11:02:28.282Z,2.67
2018-06-22T11:04:58.028Z,1.80
2018-06-22T11:07:27.728Z,1.53
2018-06-22T11:09:57.415Z,2.67
2018-06-22T11:12:27.145Z,4.47
2018-06-22T11:14:56.830Z,3.10
2018-06-22T11:17:26.551Z,3.07
2018-06-22T11:19:56.292Z,2.57
2018-06-22T11:22:25.978Z,2.10
2018-06-22T11:24:55.731Z,2.77
2018-06-22T11:27:25.681Z,2.93
2018-06-22T11:29:55.614Z,2.33
2018-06-22T11:32:25.283Z,2.10
2018-06-22T11:34:55.008Z,4.10
2018-06-22T11:37:24.739Z,2.10
2018-06-22T11:39:54.438Z,2.00
2018-06-22T11:42:24.162Z,2.53
2018-06-22T11:44:54.238Z,2.67
2018-06-22T11:47:23.935Z,3.23
2018-06-22T11:49:53.614Z,3.80
2018-06-22T11:52:23.331Z,3.43
2018-06-22T11:54:53.454Z,5.63
2018-06-22T11:57:22.883Z,2.30
2018-06-22T11:59:52.310Z,1.87
2018-06-22T12:02:22.101Z,13.77
2018-06-22T12:04:52.934Z,3.50
2018-06-22T12:07:22.658Z,3.33
2018-06-22T12:09:52.360Z,9.43
2018-06-22T12:12:21.824Z,3.63
2018-06-22T12:14:51.535Z,3.03
2018-06-22T12:17:21.230Z,2.63
2018-06-22T12:19:50.964Z,3.53
2018-06-22T12:22:20.374Z,1.60
2018-06-22T12:24:50.250Z,3.87
2018-06-22T12:27:20.179Z,3.83
2018-06-22T12:29:50.614Z,2.13
2018-06-22T12:32:20.493Z,2.83
2018-06-22T12:34:50.299Z,2.93
2018-06-22T12:37:20.480Z,2.13
2018-06-22T12:39:50.346Z,2.20
2018-06-22T12:42:20.316Z,3.83
2018-06-22T12:44:50.098Z,9.80
2018-06-22T12:47:20.381Z,5.80
2018-06-22T12:49:50.144Z,4.47
2018-06-22T12:52:19.850Z,7.33
2018-06-22T12:54:49.635Z,3.00
2018-06-22T12:57:19.320Z,2.70
2018-06-22T12:59:49.058Z,2.37
2018-06-22T13:02:18.793Z,3.80
2018-06-22T13:04:48.765Z,3.17
2018-06-22T13:07:18.479Z,2.53
2018-06-22T13:09:48.184Z,1.47
2018-06-22T13:12:17.595Z,1.73
2018-06-22T13:14:47.310Z,4.77
2018-06-22T13:17:17.363Z,2.20
2018-06-22T13:19:47.085Z,2.00
2018-06-22T13:22:16.983Z,2.40
2018-06-22T13:24:46.679Z,2.47
2018-06-22T13:27:16.394Z,4.27
2018-06-22T13:29:46.094Z,2.40
2018-06-22T13:32:15.790Z,2.97
2018-06-22T13:34:45.483Z,2.63
2018-06-22T13:37:15.576Z,4.90
2018-06-22T13:39:45.310Z,1.73
2018-06-22T13:42:14.999Z,3.77
2018-06-22T13:44:45.142Z,2.00
2018-06-22T13:47:14.823Z,3.80
2018-06-22T13:49:44.543Z,2.73
2018-06-22T13:52:14.284Z,2.70
2018-06-22T13:54:44.047Z,2.10
2018-06-22T13:57:13.769Z,2.97
2018-06-22T13:59:43.691Z,2.53
2018-06-22T14:02:13.143Z,2.97
2018-06-22T14:04:47.977Z,2.47
2018-06-22T14:07:17.386Z,2.63
2018-06-22T14:09:47.062Z,2.23
2018-06-22T14:12:16.765Z,4.00
2018-06-22T14:14:46.761Z,2.97
2018-06-22T14:17:16.442Z,3.20
2018-06-22T14:19:46.159Z,2.27
2018-06-22T14:22:15.842Z,3.70
2018-06-22T14:24:45.231Z,3.03
2018-06-22T14:27:14.962Z,3.70
2018-06-22T14:29:44.672Z,2.40
2018-06-22T14:32:14.398Z,2.37
2018-06-22T14:34:44.087Z,3.17
2018-06-22T14:37:13.780Z,3.03
2018-06-22T14:39:43.538Z,3.17
2018-06-22T14:42:13.234Z,2.03
2018-06-22T14:44:42.934Z,1.67
2018-06-22T14:47:12.619Z,3.37
2018-06-22T14:49:42.307Z,1.33
2018-06-22T14:52:12.028Z,3.77
2018-06-22T14:54:46.831Z,1.67
2018-06-22T14:57:21.782Z,1.00
2018-06-22T14:59:56.738Z,1.60
2018-06-22T15:02:31.505Z,2.00
2018-06-22T15:05:06.422Z,2.20
2018-06-22T15:07:41.511Z,4.80
2018-06-22T15:10:11.421Z,3.50
2018-06-22T15:12:41.326Z,2.70
2018-06-22T15:15:11.222Z,2.20
2018-06-22T15:17:46.171Z,2.03
2018-06-22T15:20:16.074Z,1.70
2018-06-22T15:22:45.595Z,1.97
2018-06-22T15:25:16.127Z,4.70
2018-06-22T15:27:46.209Z,1.33
2018-06-22T15:30:16.785Z,2.63
2018-06-22T15:32:46.470Z,2.07
2018-06-22T15:35:21.327Z,1.43
2018-06-22T15:37:56.615Z,1.67
2018-06-22T15:40:31.419Z,0.90
2018-06-22T15:43:06.317Z,1.97
2018-06-22T15:45:41.116Z,3.70
2018-06-22T15:48:16.710Z,1.63
2018-06-22T15:50:51.735Z,1.83
2018-06-22T15:53:26.826Z,2.27
2018-06-22T15:56:02.062Z,2.83
2018-06-22T15:58:31.943Z,1.70
2018-06-22T16:01:01.870Z,1.77
2018-06-22T16:03:36.839Z,1.10
2018-06-22T16:06:07.286Z,2.80
2018-06-22T16:08:37.211Z,1.23
2018-06-22T16:11:07.609Z,0.80
2018-06-22T16:13:37.239Z,2.50
2018-06-22T16:16:12.210Z,0.97
2018-06-22T16:18:47.534Z,1.57
2018-06-22T16:21:22.467Z,0.90
2018-06-22T16:23:57.578Z,2.23
2018-06-22T16:26:32.663Z,3.43
2018-06-22T16:29:02.614Z,1.83
2018-06-22T16:31:32.896Z,1.80
2018-06-22T16:34:02.735Z,0.87
2018-06-22T16:36:32.615Z,2.03
2018-06-22T16:39:02.415Z,2.00
2018-06-22T16:41:32.147Z,1.70
2018-06-22T16:44:01.890Z,1.43
2018-06-22T16:46:31.625Z,1.10
2018-06-22T16:49:01.119Z,1.13
2018-06-22T16:51:31.578Z,0.80
2018-06-22T16:54:01.282Z,2.40
2018-06-22T16:56:31.087Z,3.13
2018-06-22T16:59:04.067Z,1.00
2018-06-22T17:01:34.783Z,2.10
2018-06-22T17:04:04.569Z,3.33
2018-06-22T17:06:39.412Z,2.30
2018-06-22T17:09:14.621Z,1.87
2018-06-22T17:11:49.470Z,2.93
2018-06-22T17:14:24.227Z,1.33
2018-06-22T17:16:59.179Z,1.57
2018-06-22T17:19:29.073Z,1.37
2018-06-22T17:21:58.890Z,1.83
2018-06-22T17:24:28.740Z,2.37
2018-06-22T17:26:58.811Z,1.40
2018-06-22T17:29:28.893Z,3.33
2018-06-22T17:31:58.635Z,2.93
2018-06-22T17:34:28.419Z,2.03
2018-06-22T17:36:58.137Z,1.50
2018-06-22T17:39:27.821Z,1.57
2018-06-22T17:41:57.514Z,1.80
2018-06-22T17:44:27.247Z,0.63
2018-06-22T17:46:57.102Z,0.50
2018-06-22T17:49:26.723Z,0.80
2018-06-22T17:51:56.531Z,0.93
2018-06-22T17:54:26.425Z,1.47
2018-06-22T17:56:56.283Z,0.90
2018-06-22T17:59:31.259Z,2.10
2018-06-22T18:02:06.243Z,1.77
2018-06-22T18:04:44.444Z,2.03
2018-06-22T18:07:20.175Z,0.93
2018-06-22T18:09:55.199Z,1.30
2018-06-22T18:12:31.248Z,1.87
2018-06-22T18:15:01.217Z,1.10
2018-06-22T18:17:31.163Z,2.97
2018-06-22T18:20:01.396Z,1.40
2018-06-22T18:22:31.251Z,1.37
2018-06-22T18:25:00.966Z,2.33
2018-06-22T18:27:30.647Z,1.63
2018-06-22T18:30:00.680Z,1.53
2018-06-22T18:32:30.351Z,2.97
2018-06-22T18:35:00.463Z,2.03
2018-06-22T18:37:30.198Z,1.30
2018-06-22T18:40:00.020Z,1.10
2018-06-22T18:42:29.704Z,1.80
2018-06-22T18:44:59.519Z,17.63
2018-06-22T18:47:29.622Z,184.63
2018-06-22T18:49:59.498Z,654.00
2018-06-22T18:52:34.761Z,1999.90
2018-06-22T18:55:09.966Z,1999.90
2018-06-22T18:57:44.966Z,1999.90
2018-06-22T19:00:20.220Z,117.67
2018-06-22T19:02:55.490Z,78.87
2018-06-22T19:05:25.844Z,69.77
2018-06-22T19:07:55.978Z,79.83
2018-06-22T19:10:25.788Z,82.97
2018-06-22T19:12:55.649Z,80.83
2018-06-22T19:15:25.569Z,44.20
2018-06-22T19:17:55.590Z,8.80
2018-06-22T19:20:25.690Z,2.60
2018-06-22T19:22:55.458Z,1.33
2018-06-22T19:25:25.633Z,2.30
2018-06-22T19:27:55.685Z,2.23
2018-06-22T19:30:26.308Z,3.57
2018-06-22T19:32:56.219Z,1.70
2018-06-22T19:35:25.957Z,2.87
2018-06-22T19:37:55.667Z,1.63
2018-06-22T19:40:25.372Z,1.97
2018-06-22T19:42:55.134Z,2.43
2018-06-22T19:45:30.224Z,2.30
2018-06-22T19:49:07.268Z,3.57
2018-06-22T19:51:42.040Z,2.43
2018-06-22T19:54:11.798Z,2.33
2018-06-22T19:56:41.507Z,3.53
2018-06-22T19:59:11.360Z,3.97
2018-06-22T20:01:41.470Z,2.10
2018-06-22T20:04:11.534Z,1.90
2018-06-22T20:06:41.690Z,3.93
2018-06-22T20:09:11.791Z,2.93
2018-06-22T20:11:42.445Z,3.60
2018-06-22T20:14:12.299Z,1.97
2018-06-22T20:16:41.726Z,2.67
2018-06-22T20:19:11.910Z,3.77
2018-06-22T20:21:41.658Z,1.70
2018-06-22T20:24:11.411Z,2.80
2018-06-22T20:26:41.133Z,6.17
2018-06-22T20:29:10.852Z,3.50
2018-06-22T20:31:40.657Z,2.40
2018-06-22T20:34:15.733Z,4.63
2018-06-22T20:36:50.675Z,2.67
2018-06-22T20:39:25.496Z,3.37
2018-06-22T20:42:58.491Z,4.03
2018-06-22T20:45:33.463Z,3.37
2018-06-22T20:48:09.224Z,6.43
2018-06-22T20:50:39.096Z,5.30
2018-06-22T20:53:09.039Z,4.23
2018-06-22T20:55:39.407Z,4.03
2018-06-22T20:58:09.167Z,4.63
2018-06-22T21:00:39.309Z,5.50
2018-06-22T21:03:09.719Z,5.13
2018-06-22T21:05:39.535Z,5.47
2018-06-22T21:08:10.514Z,6.23
2018-06-22T21:10:40.491Z,4.33
2018-06-22T21:13:10.483Z,3.70
2018-06-22T21:15:40.387Z,4.97
2018-06-22T21:18:10.259Z,6.50
2018-06-22T21:20:44.173Z,5.27
2018-06-22T21:23:14.048Z,4.23
2018-06-22T21:25:43.973Z,4.97
2018-06-22T21:28:19.188Z,6.50
2018-06-22T21:30:54.330Z,5.67
2018-06-22T21:33:29.543Z,4.77
2018-06-22T21:36:04.619Z,5.73
2018-06-22T21:38:39.612Z,3.87
2018-06-22T21:41:09.471Z,5.07
2018-06-22T21:43:39.271Z,5.37
2018-06-22T21:46:08.943Z,4.90
2018-06-22T21:48:38.802Z,7.00
2018-06-22T21:51:08.642Z,5.43
2018-06-22T21:53:38.357Z,5.87
2018-06-22T21:56:08.235Z,5.03
2018-06-22T21:58:38.053Z,4.90
2018-06-22T22:01:09.452Z,5.13
2018-06-22T22:03:39.606Z,5.53
2018-06-22T22:06:09.519Z,6.00
2018-06-22T22:08:39.527Z,4.27
2018-06-22T22:11:10.794Z,4.47
2018-06-22T22:13:41.133Z,5.93
2018-06-22T22:16:10.721Z,5.07
2018-06-22T22:18:40.400Z,4.57
2018-06-22T22:21:10.136Z,5.97
2018-06-22T22:23:40.046Z,5.40
2018-06-22T22:26:10.195Z,4.50
2018-06-22T22:28:39.983Z,5.23
2018-06-22T22:31:09.802Z,4.40
2018-06-22T22:33:39.544Z,4.43
2018-06-22T22:36:09.254Z,4.97
2018-06-22T22:38:38.931Z,3.87
2018-06-22T22:41:09.090Z,4.03
2018-06-22T22:43:39.223Z,7.27
2018-06-22T22:46:08.842Z,5.20
2018-06-22T22:48:38.342Z,4.20
2018-06-22T22:51:08.363Z,4.43
2018-06-22T22:53:38.450Z,5.30
2018-06-22T22:56:08.578Z,4.57
2018-06-22T22:58:38.185Z,3.97
2018-06-22T23:01:07.884Z,4.17
2018-06-22T23:03:37.635Z,4.10
2018-06-22T23:06:07.530Z,4.13
2018-06-22T23:08:37.366Z,4.63
2018-06-22T23:11:07.202Z,4.30
2018-06-22T23:13:36.898Z,6.30
2018-06-22T23:16:06.946Z,5.27
2018-06-22T23:18:36.742Z,4.47
2018-06-22T23:21:06.558Z,4.30
2018-06-22T23:23:37.787Z,4.30
2018-06-22T23:26:08.170Z,3.97
2018-06-22T23:28:38.366Z,4.60
2018-06-22T23:31:08.358Z,5.77
2018-06-22T23:33:38.433Z,3.93
2018-06-22T23:36:08.210Z,4.23
2018-06-22T23:38:37.914Z,4.30
2018-06-22T23:41:07.627Z,4.40
2018-06-22T23:43:37.143Z,4.37
2018-06-22T23:46:06.999Z,5.30
2018-06-22T23:48:36.574Z,3.83
2018-06-22T23:51:06.541Z,4.30
2018-06-22T23:53:36.237Z,4.33
2018-06-22T23:56:05.925Z,4.20
2018-06-22T23:58:36.004Z,4.00
